sensor_id;sensor_type;location;lat;lon;timestamp;pressure;altitude;pressure_sealevel;temperature;humidity
35291;BME280;21411;50.024;19.220;2023-02-20T00:00:58;99589.81;;;1.08;100.00
35291;BME280;21411;50.024;19.220;2023-02-20T00:03:26;99589.66;;;1.07;100.00
35291;BME280;21411;50.024;19.220;2023-02-20T00:05:53;99587.05;;;1.07;100.00
35291;BME280;21411;50.024;19.220;2023-02-20T00:08:19;99586.70;;;1.07;100.00
35291;BME280;21411;50.024;19.220;2023-02-20T00:10:46;99586.02;;;1.06;100.00
35291;BME280;21411;50.024;19.220;2023-02-20T00:13:12;99584.27;;;1.06;100.00
35291;BME280;21411;50.024;19.220;2023-02-20T00:15:39;99582.14;;;1.07;100.00
35291;BME280;21411;50.024;19.220;2023-02-20T00:18:06;99577.41;;;1.08;100.00
35291;BME280;21411;50.024;19.220;2023-02-20T00:20:32;99577.02;;;1.09;100.00
35291;BME280;21411;50.024;19.220;2023-02-20T00:23:01;99573.32;;;1.11;100.00
35291;BME280;21411;50.024;19.220;2023-02-20T00:25:28;99569.58;;;1.14;100.00
35291;BME280;21411;50.024;19.220;2023-02-20T00:27:55;99568.83;;;1.17;100.00
35291;BME280;21411;50.024;19.220;2023-02-20T00:30:22;99572.84;;;1.17;100.00
35291;BME280;21411;50.024;19.220;2023-02-20T00:32:51;99569.84;;;1.19;100.00
35291;BME280;21411;50.024;19.220;2023-02-20T00:35:19;99572.08;;;1.21;100.00
35291;BME280;21411;50.024;19.220;2023-02-20T00:37:46;99569.27;;;1.21;100.00
35291;BME280;21411;50.024;19.220;2023-02-20T00:40:15;99568.39;;;1.22;100.00
35291;BME280;21411;50.024;19.220;2023-02-20T00:42:42;99571.16;;;1.23;100.00
35291;BME280;21411;50.024;19.220;2023-02-20T00:45:09;99570.10;;;1.23;100.00
35291;BME280;21411;50.024;19.220;2023-02-20T00:47:36;99567.45;;;1.24;100.00
35291;BME280;21411;50.024;19.220;2023-02-20T00:50:04;99571.65;;;1.25;100.00
35291;BME280;21411;50.024;19.220;2023-02-20T00:52:31;99570.42;;;1.25;100.00
35291;BME280;21411;50.024;19.220;2023-02-20T00:54:58;99569.87;;;1.26;100.00
35291;BME280;21411;50.024;19.220;2023-02-20T00:57:25;99567.26;;;1.26;100.00
35291;BME280;21411;50.024;19.220;2023-02-20T00:59:51;99565.16;;;1.25;100.00
35291;BME280;21411;50.024;19.220;2023-02-20T01:02:19;99561.84;;;1.25;100.00
35291;BME280;21411;50.024;19.220;2023-02-20T01:04:46;99566.74;;;1.25;100.00
35291;BME280;21411;50.024;19.220;2023-02-20T01:07:12;99566.76;;;1.24;100.00
35291;BME280;21411;50.024;19.220;2023-02-20T01:09:39;99573.05;;;1.25;100.00
35291;BME280;21411;50.024;19.220;2023-02-20T01:12:06;99572.52;;;1.25;100.00
35291;BME280;21411;50.024;19.220;2023-02-20T01:14:33;99573.72;;;1.26;100.00
35291;BME280;21411;50.024;19.220;2023-02-20T01:16:59;99573.71;;;1.27;100.00
35291;BME280;21411;50.024;19.220;2023-02-20T01:19:26;99573.50;;;1.28;100.00
35291;BME280;21411;50.024;19.220;2023-02-20T01:21:53;99574.39;;;1.28;100.00
35291;BME280;21411;50.024;19.220;2023-02-20T01:24:19;99575.41;;;1.28;100.00
35291;BME280;21411;50.024;19.220;2023-02-20T01:26:47;99568.76;;;1.29;100.00
35291;BME280;21411;50.024;19.220;2023-02-20T01:29:16;99566.29;;;1.30;100.00
35291;BME280;21411;50.024;19.220;2023-02-20T01:31:47;99565.38;;;1.33;100.00
35291;BME280;21411;50.024;19.220;2023-02-20T01:34:14;99563.41;;;1.34;100.00
35291;BME280;21411;50.024;19.220;2023-02-20T01:36:46;99557.45;;;1.34;100.00
35291;BME280;21411;50.024;19.220;2023-02-20T01:39:16;99556.92;;;1.35;100.00
35291;BME280;21411;50.024;19.220;2023-02-20T01:41:43;99553.73;;;1.36;100.00
35291;BME280;21411;50.024;19.220;2023-02-20T01:44:22;99552.33;;;1.37;100.00
35291;BME280;21411;50.024;19.220;2023-02-20T01:46:54;99550.20;;;1.38;100.00
35291;BME280;21411;50.024;19.220;2023-02-20T01:49:27;99550.88;;;1.40;100.00
35291;BME280;21411;50.024;19.220;2023-02-20T01:52:05;99549.61;;;1.41;100.00
35291;BME280;21411;50.024;19.220;2023-02-20T01:54:35;99545.90;;;1.42;100.00
35291;BME280;21411;50.024;19.220;2023-02-20T01:57:04;99544.13;;;1.43;100.00
35291;BME280;21411;50.024;19.220;2023-02-20T01:59:36;99542.21;;;1.43;100.00
35291;BME280;21411;50.024;19.220;2023-02-20T02:02:05;99542.39;;;1.43;100.00
35291;BME280;21411;50.024;19.220;2023-02-20T02:04:35;99539.74;;;1.44;100.00
35291;BME280;21411;50.024;19.220;2023-02-20T02:07:02;99536.57;;;1.45;100.00
35291;BME280;21411;50.024;19.220;2023-02-20T02:09:44;99536.56;;;1.45;100.00
35291;BME280;21411;50.024;19.220;2023-02-20T02:12:13;99531.48;;;1.45;100.00
35291;BME280;21411;50.024;19.220;2023-02-20T02:14:39;99518.71;;;1.44;100.00
35291;BME280;21411;50.024;19.220;2023-02-20T02:17:22;99507.69;;;1.44;100.00
35291;BME280;21411;50.024;19.220;2023-02-20T02:20:13;99498.77;;;1.44;100.00
35291;BME280;21411;50.024;19.220;2023-02-20T02:25:49;99489.69;;;1.43;100.00
35291;BME280;21411;50.024;19.220;2023-02-20T02:28:35;99483.77;;;1.42;100.00
35291;BME280;21411;50.024;19.220;2023-02-20T02:34:24;99481.38;;;1.39;100.00
35291;BME280;21411;50.024;19.220;2023-02-20T02:37:01;99481.06;;;1.37;100.00
35291;BME280;21411;50.024;19.220;2023-02-20T02:39:36;99481.80;;;1.36;100.00
35291;BME280;21411;50.024;19.220;2023-02-20T02:47:21;99467.63;;;1.36;100.00
35291;BME280;21411;50.024;19.220;2023-02-20T02:50:11;99460.11;;;1.35;100.00
35291;BME280;21411;50.024;19.220;2023-02-20T02:52:41;99455.22;;;1.34;100.00
35291;BME280;21411;50.024;19.220;2023-02-20T02:55:25;99459.42;;;1.34;100.00
35291;BME280;21411;50.024;19.220;2023-02-20T02:57:53;99470.79;;;1.35;100.00
35291;BME280;21411;50.024;19.220;2023-02-20T03:00:42;99478.67;;;1.35;100.00
35291;BME280;21411;50.024;19.220;2023-02-20T03:03:23;99480.24;;;1.35;100.00
35291;BME280;21411;50.024;19.220;2023-02-20T03:08:41;99479.36;;;1.36;100.00
35291;BME280;21411;50.024;19.220;2023-02-20T03:11:18;99477.97;;;1.35;100.00
35291;BME280;21411;50.024;19.220;2023-02-20T03:13:50;99472.73;;;1.34;100.00
35291;BME280;21411;50.024;19.220;2023-02-20T03:16:42;99474.30;;;1.34;100.00
35291;BME280;21411;50.024;19.220;2023-02-20T03:19:12;99471.52;;;1.34;100.00
35291;BME280;21411;50.024;19.220;2023-02-20T03:21:43;99464.70;;;1.33;100.00
35291;BME280;21411;50.024;19.220;2023-02-20T03:24:13;99456.48;;;1.33;100.00
35291;BME280;21411;50.024;19.220;2023-02-20T03:26:44;99448.95;;;1.33;100.00
35291;BME280;21411;50.024;19.220;2023-02-20T03:29:22;99434.62;;;1.31;100.00
35291;BME280;21411;50.024;19.220;2023-02-20T03:32:00;99425.02;;;1.30;100.00
35291;BME280;21411;50.024;19.220;2023-02-20T03:34:49;99425.95;;;1.28;100.00
35291;BME280;21411;50.024;19.220;2023-02-20T03:37:37;99424.07;;;1.26;100.00
35291;BME280;21411;50.024;19.220;2023-02-20T03:40:24;99423.23;;;1.24;100.00
35291;BME280;21411;50.024;19.220;2023-02-20T03:43:13;99430.09;;;1.22;100.00
35291;BME280;21411;50.024;19.220;2023-02-20T03:46:05;99427.69;;;1.21;100.00
35291;BME280;21411;50.024;19.220;2023-02-20T03:48:41;99425.80;;;1.19;100.00
35291;BME280;21411;50.024;19.220;2023-02-20T03:51:10;99431.64;;;1.16;100.00
35291;BME280;21411;50.024;19.220;2023-02-20T03:53:39;99436.96;;;1.12;100.00
35291;BME280;21411;50.024;19.220;2023-02-20T03:56:10;99443.17;;;1.08;100.00
35291;BME280;21411;50.024;19.220;2023-02-20T03:58:42;99448.34;;;1.04;100.00
35291;BME280;21411;50.024;19.220;2023-02-20T04:01:12;99451.75;;;1.00;100.00
35291;BME280;21411;50.024;19.220;2023-02-20T04:03:43;99449.41;;;0.95;100.00
35291;BME280;21411;50.024;19.220;2023-02-20T04:06:13;99443.75;;;0.89;100.00
35291;BME280;21411;50.024;19.220;2023-02-20T04:08:48;99442.46;;;0.84;100.00
35291;BME280;21411;50.024;19.220;2023-02-20T04:11:22;99436.09;;;0.78;100.00
35291;BME280;21411;50.024;19.220;2023-02-20T04:13:52;99432.20;;;0.72;100.00
35291;BME280;21411;50.024;19.220;2023-02-20T04:16:20;99429.89;;;0.66;100.00
35291;BME280;21411;50.024;19.220;2023-02-20T04:18:47;99431.91;;;0.60;100.00
35291;BME280;21411;50.024;19.220;2023-02-20T04:21:42;99430.95;;;0.55;100.00
35291;BME280;21411;50.024;19.220;2023-02-20T04:24:20;99437.88;;;0.51;100.00
35291;BME280;21411;50.024;19.220;2023-02-20T04:26:48;99435.17;;;0.45;100.00
35291;BME280;21411;50.024;19.220;2023-02-20T04:29:15;99435.27;;;0.40;100.00
35291;BME280;21411;50.024;19.220;2023-02-20T04:31:42;99432.55;;;0.36;100.00
35291;BME280;21411;50.024;19.220;2023-02-20T04:34:08;99429.66;;;0.31;100.00
35291;BME280;21411;50.024;19.220;2023-02-20T04:36:35;99423.14;;;0.25;100.00
35291;BME280;21411;50.024;19.220;2023-02-20T04:39:02;99415.70;;;0.20;100.00
35291;BME280;21411;50.024;19.220;2023-02-20T04:41:28;99410.54;;;0.16;100.00
35291;BME280;21411;50.024;19.220;2023-02-20T04:43:55;99411.50;;;0.12;100.00
35291;BME280;21411;50.024;19.220;2023-02-20T04:46:41;99403.72;;;0.07;100.00
35291;BME280;21411;50.024;19.220;2023-02-20T04:49:08;99400.84;;;0.02;100.00
35291;BME280;21411;50.024;19.220;2023-02-20T04:51:35;99405.98;;;-0.02;100.00
35291;BME280;21411;50.024;19.220;2023-02-20T04:54:01;99406.56;;;-0.06;100.00
35291;BME280;21411;50.024;19.220;2023-02-20T04:56:28;99401.03;;;-0.09;100.00
35291;BME280;21411;50.024;19.220;2023-02-20T04:58:55;99394.46;;;-0.13;100.00
35291;BME280;21411;50.024;19.220;2023-02-20T05:01:22;99396.26;;;-0.16;100.00
35291;BME280;21411;50.024;19.220;2023-02-20T05:03:48;99391.27;;;-0.20;100.00
35291;BME280;21411;50.024;19.220;2023-02-20T05:06:15;99387.28;;;-0.22;100.00
35291;BME280;21411;50.024;19.220;2023-02-20T05:08:42;99380.33;;;-0.24;100.00
35291;BME280;21411;50.024;19.220;2023-02-20T05:11:08;99380.02;;;-0.26;100.00
35291;BME280;21411;50.024;19.220;2023-02-20T05:13:35;99388.62;;;-0.29;100.00
35291;BME280;21411;50.024;19.220;2023-02-20T05:16:02;99390.72;;;-0.29;100.00
35291;BME280;21411;50.024;19.220;2023-02-20T05:18:29;99388.05;;;-0.26;100.00
35291;BME280;21411;50.024;19.220;2023-02-20T05:20:56;99387.81;;;-0.22;100.00
35291;BME280;21411;50.024;19.220;2023-02-20T05:23:41;99379.69;;;-0.17;100.00
35291;BME280;21411;50.024;19.220;2023-02-20T05:26:09;99372.97;;;-0.13;100.00
35291;BME280;21411;50.024;19.220;2023-02-20T05:28:37;99367.31;;;-0.09;100.00
35291;BME280;21411;50.024;19.220;2023-02-20T05:31:05;99366.38;;;-0.05;100.00
35291;BME280;21411;50.024;19.220;2023-02-20T05:33:32;99370.84;;;-0.01;100.00
35291;BME280;21411;50.024;19.220;2023-02-20T05:35:59;99370.60;;;0.03;100.00
35291;BME280;21411;50.024;19.220;2023-02-20T05:38:26;99372.80;;;0.07;100.00
35291;BME280;21411;50.024;19.220;2023-02-20T05:40:53;99373.76;;;0.12;100.00
35291;BME280;21411;50.024;19.220;2023-02-20T05:43:20;99376.13;;;0.16;100.00
35291;BME280;21411;50.024;19.220;2023-02-20T05:45:46;99375.15;;;0.22;100.00
35291;BME280;21411;50.024;19.220;2023-02-20T05:48:14;99378.90;;;0.27;100.00
35291;BME280;21411;50.024;19.220;2023-02-20T05:50:41;99381.96;;;0.31;100.00
35291;BME280;21411;50.024;19.220;2023-02-20T05:53:08;99382.05;;;0.35;100.00
35291;BME280;21411;50.024;19.220;2023-02-20T05:55:34;99373.77;;;0.39;100.00
35291;BME280;21411;50.024;19.220;2023-02-20T05:58:01;99373.70;;;0.42;100.00
35291;BME280;21411;50.024;19.220;2023-02-20T06:00:27;99375.36;;;0.47;100.00
35291;BME280;21411;50.024;19.220;2023-02-20T06:02:54;99369.16;;;0.52;100.00
35291;BME280;21411;50.024;19.220;2023-02-20T06:05:21;99370.80;;;0.57;100.00
35291;BME280;21411;50.024;19.220;2023-02-20T06:07:50;99378.53;;;0.63;100.00
35291;BME280;21411;50.024;19.220;2023-02-20T06:10:17;99384.90;;;0.68;100.00
35291;BME280;21411;50.024;19.220;2023-02-20T06:12:44;99386.02;;;0.73;100.00
35291;BME280;21411;50.024;19.220;2023-02-20T06:15:11;99387.86;;;0.77;100.00
35291;BME280;21411;50.024;19.220;2023-02-20T06:17:37;99385.52;;;0.80;100.00
35291;BME280;21411;50.024;19.220;2023-02-20T06:20:04;99387.56;;;0.83;100.00
35291;BME280;21411;50.024;19.220;2023-02-20T06:22:31;99393.52;;;0.91;100.00
35291;BME280;21411;50.024;19.220;2023-02-20T06:24:58;99398.38;;;1.01;100.00
35291;BME280;21411;50.024;19.220;2023-02-20T06:27:25;99401.17;;;1.08;100.00
35291;BME280;21411;50.024;19.220;2023-02-20T06:29:51;99401.71;;;1.16;100.00
35291;BME280;21411;50.024;19.220;2023-02-20T06:32:18;99403.80;;;1.25;100.00
35291;BME280;21411;50.024;19.220;2023-02-20T06:34:44;99402.92;;;1.33;100.00
35291;BME280;21411;50.024;19.220;2023-02-20T06:37:12;99400.45;;;1.41;100.00
35291;BME280;21411;50.024;19.220;2023-02-20T06:39:38;99397.27;;;1.49;100.00
35291;BME280;21411;50.024;19.220;2023-02-20T06:42:08;99396.55;;;1.58;100.00
35291;BME280;21411;50.024;19.220;2023-02-20T06:44:34;99396.21;;;1.64;100.00
35291;BME280;21411;50.024;19.220;2023-02-20T06:47:01;99396.20;;;1.72;100.00
35291;BME280;21411;50.024;19.220;2023-02-20T06:49:27;99379.74;;;1.79;100.00
35291;BME280;21411;50.024;19.220;2023-02-20T06:51:54;99377.98;;;1.86;100.00
35291;BME280;21411;50.024;19.220;2023-02-20T06:54:21;99380.77;;;1.93;100.00
35291;BME280;21411;50.024;19.220;2023-02-20T06:56:48;99374.98;;;2.01;100.00
35291;BME280;21411;50.024;19.220;2023-02-20T06:59:14;99375.49;;;2.08;100.00
35291;BME280;21411;50.024;19.220;2023-02-20T07:01:42;99376.53;;;2.15;100.00
35291;BME280;21411;50.024;19.220;2023-02-20T07:04:15;99376.91;;;2.21;100.00
35291;BME280;21411;50.024;19.220;2023-02-20T07:06:43;99370.95;;;2.27;100.00
35291;BME280;21411;50.024;19.220;2023-02-20T07:09:09;99372.69;;;2.34;100.00
35291;BME280;21411;50.024;19.220;2023-02-20T07:11:36;99369.85;;;2.42;100.00
35291;BME280;21411;50.024;19.220;2023-02-20T07:14:03;99368.98;;;2.48;100.00
35291;BME280;21411;50.024;19.220;2023-02-20T07:16:30;99364.39;;;2.55;100.00
35291;BME280;21411;50.024;19.220;2023-02-20T07:19:15;99364.50;;;2.64;100.00
35291;BME280;21411;50.024;19.220;2023-02-20T07:22:01;99366.14;;;2.73;100.00
35291;BME280;21411;50.024;19.220;2023-02-20T07:24:49;99362.36;;;2.89;100.00
35291;BME280;21411;50.024;19.220;2023-02-20T07:27:16;99353.20;;;3.07;100.00
35291;BME280;21411;50.024;19.220;2023-02-20T07:29:44;99343.34;;;3.25;100.00
35291;BME280;21411;50.024;19.220;2023-02-20T07:32:13;99346.27;;;3.38;100.00
35291;BME280;21411;50.024;19.220;2023-02-20T07:34:40;99346.83;;;3.48;100.00
35291;BME280;21411;50.024;19.220;2023-02-20T07:37:06;99341.09;;;3.57;100.00
35291;BME280;21411;50.024;19.220;2023-02-20T07:39:33;99335.39;;;3.64;100.00
35291;BME280;21411;50.024;19.220;2023-02-20T07:42:00;99329.45;;;3.74;100.00
35291;BME280;21411;50.024;19.220;2023-02-20T07:44:26;99326.75;;;3.86;100.00
35291;BME280;21411;50.024;19.220;2023-02-20T07:46:53;99319.95;;;3.95;100.00
35291;BME280;21411;50.024;19.220;2023-02-20T07:49:19;99314.89;;;3.99;100.00
35291;BME280;21411;50.024;19.220;2023-02-20T07:51:46;99305.86;;;4.00;100.00
35291;BME280;21411;50.024;19.220;2023-02-20T07:54:12;99300.67;;;4.03;100.00
35291;BME280;21411;50.024;19.220;2023-02-20T07:56:40;99302.20;;;4.05;100.00
35291;BME280;21411;50.024;19.220;2023-02-20T07:59:08;99298.80;;;4.06;100.00
35291;BME280;21411;50.024;19.220;2023-02-20T08:01:35;99293.23;;;4.10;100.00
35291;BME280;21411;50.024;19.220;2023-02-20T08:04:02;99294.77;;;4.15;100.00
35291;BME280;21411;50.024;19.220;2023-02-20T08:06:29;99291.12;;;4.20;100.00
35291;BME280;21411;50.024;19.220;2023-02-20T08:08:56;99291.17;;;4.23;100.00
35291;BME280;21411;50.024;19.220;2023-02-20T08:11:23;99282.88;;;4.29;100.00
35291;BME280;21411;50.024;19.220;2023-02-20T08:13:50;99283.96;;;4.37;100.00
35291;BME280;21411;50.024;19.220;2023-02-20T08:16:21;99280.66;;;4.46;100.00
35291;BME280;21411;50.024;19.220;2023-02-20T08:18:48;99277.66;;;4.55;100.00
35291;BME280;21411;50.024;19.220;2023-02-20T08:21:14;99287.94;;;4.58;100.00
35291;BME280;21411;50.024;19.220;2023-02-20T08:23:41;99292.98;;;4.59;100.00
35291;BME280;21411;50.024;19.220;2023-02-20T08:26:08;99291.03;;;4.60;100.00
35291;BME280;21411;50.024;19.220;2023-02-20T08:28:34;99293.80;;;4.61;100.00
35291;BME280;21411;50.024;19.220;2023-02-20T08:31:01;99293.16;;;4.64;100.00
35291;BME280;21411;50.024;19.220;2023-02-20T08:33:28;99298.91;;;4.66;100.00
35291;BME280;21411;50.024;19.220;2023-02-20T08:35:55;99299.36;;;4.68;100.00
35291;BME280;21411;50.024;19.220;2023-02-20T08:38:31;99296.02;;;4.72;100.00
35291;BME280;21411;50.024;19.220;2023-02-20T08:41:03;99287.20;;;4.77;100.00
35291;BME280;21411;50.024;19.220;2023-02-20T08:43:30;99285.21;;;4.83;100.00
35291;BME280;21411;50.024;19.220;2023-02-20T08:45:56;99276.70;;;4.89;100.00
35291;BME280;21411;50.024;19.220;2023-02-20T08:48:23;99271.52;;;4.96;100.00
35291;BME280;21411;50.024;19.220;2023-02-20T08:50:50;99262.21;;;5.04;100.00
35291;BME280;21411;50.024;19.220;2023-02-20T08:53:17;99261.12;;;5.14;100.00
35291;BME280;21411;50.024;19.220;2023-02-20T08:55:44;99259.42;;;5.20;100.00
35291;BME280;21411;50.024;19.220;2023-02-20T08:58:11;99260.20;;;5.24;100.00
35291;BME280;21411;50.024;19.220;2023-02-20T09:00:37;99255.59;;;5.24;100.00
35291;BME280;21411;50.024;19.220;2023-02-20T09:03:07;99251.16;;;5.25;100.00
35291;BME280;21411;50.024;19.220;2023-02-20T09:05:34;99246.91;;;5.30;100.00
35291;BME280;21411;50.024;19.220;2023-02-20T09:08:02;99237.55;;;5.39;100.00
35291;BME280;21411;50.024;19.220;2023-02-20T09:10:29;99230.89;;;5.54;100.00
35291;BME280;21411;50.024;19.220;2023-02-20T09:12:57;99227.35;;;5.71;100.00
35291;BME280;21411;50.024;19.220;2023-02-20T09:15:24;99222.33;;;5.86;100.00
35291;BME280;21411;50.024;19.220;2023-02-20T09:17:53;99219.43;;;5.95;100.00
35291;BME280;21411;50.024;19.220;2023-02-20T09:20:21;99214.98;;;6.01;100.00
35291;BME280;21411;50.024;19.220;2023-02-20T09:22:49;99207.47;;;6.03;100.00
35291;BME280;21411;50.024;19.220;2023-02-20T09:25:17;99193.72;;;6.03;100.00
35291;BME280;21411;50.024;19.220;2023-02-20T09:27:44;99187.40;;;6.06;100.00
35291;BME280;21411;50.024;19.220;2023-02-20T09:30:15;99185.08;;;6.10;100.00
35291;BME280;21411;50.024;19.220;2023-02-20T09:32:45;99186.73;;;6.13;100.00
35291;BME280;21411;50.024;19.220;2023-02-20T09:35:32;99180.86;;;6.14;100.00
35291;BME280;21411;50.024;19.220;2023-02-20T09:37:59;99177.12;;;6.11;100.00
35291;BME280;21411;50.024;19.220;2023-02-20T09:40:29;99175.70;;;6.07;100.00
35291;BME280;21411;50.024;19.220;2023-02-20T09:45:46;99174.27;;;6.15;100.00
35291;BME280;21411;50.024;19.220;2023-02-20T09:48:27;99161.54;;;6.24;100.00
35291;BME280;21411;50.024;19.220;2023-02-20T09:51:01;99162.48;;;6.37;100.00
35291;BME280;21411;50.024;19.220;2023-02-20T09:53:36;99155.11;;;6.51;100.00
35291;BME280;21411;50.024;19.220;2023-02-20T09:56:09;99154.91;;;6.59;100.00
35291;BME280;21411;50.024;19.220;2023-02-20T10:01:18;99149.40;;;6.60;100.00
35291;BME280;21411;50.024;19.220;2023-02-20T10:06:21;99141.09;;;6.68;100.00
35291;BME280;21411;50.024;19.220;2023-02-20T10:08:49;99133.58;;;6.73;100.00
35291;BME280;21411;50.024;19.220;2023-02-20T10:11:28;99129.92;;;6.75;100.00
35291;BME280;21411;50.024;19.220;2023-02-20T10:14:22;99132.86;;;6.73;100.00
35291;BME280;21411;50.024;19.220;2023-02-20T10:16:58;99129.73;;;6.69;100.00
35291;BME280;21411;50.024;19.220;2023-02-20T10:25:22;99123.71;;;6.65;100.00
35291;BME280;21411;50.024;19.220;2023-02-20T10:27:57;99119.52;;;6.65;100.00
35291;BME280;21411;50.024;19.220;2023-02-20T10:35:42;99100.63;;;6.79;100.00
35291;BME280;21411;50.024;19.220;2023-02-20T10:38:11;99087.13;;;6.84;100.00
35291;BME280;21411;50.024;19.220;2023-02-20T10:40:52;99082.79;;;6.90;100.00
35291;BME280;21411;50.024;19.220;2023-02-20T10:43:42;99072.73;;;6.92;100.00
35291;BME280;21411;50.024;19.220;2023-02-20T10:46:16;99071.76;;;6.94;100.00
35291;BME280;21411;50.024;19.220;2023-02-20T10:48:46;99059.08;;;6.94;100.00
35291;BME280;21411;50.024;19.220;2023-02-20T10:51:42;99047.17;;;6.95;100.00
35291;BME280;21411;50.024;19.220;2023-02-20T10:54:35;99044.45;;;7.03;100.00
35291;BME280;21411;50.024;19.220;2023-02-20T10:57:11;99039.20;;;7.13;100.00
35291;BME280;21411;50.024;19.220;2023-02-20T11:02:20;99029.27;;;7.24;100.00
35291;BME280;21411;50.024;19.220;2023-02-20T11:05:06;99016.37;;;7.37;100.00
35291;BME280;21411;50.024;19.220;2023-02-20T11:07:34;99004.16;;;7.54;100.00
35291;BME280;21411;50.024;19.220;2023-02-20T11:10:01;98995.61;;;7.68;100.00
35291;BME280;21411;50.024;19.220;2023-02-20T11:12:45;98984.17;;;7.83;100.00
35291;BME280;21411;50.024;19.220;2023-02-20T11:15:17;98967.65;;;7.99;100.00
35291;BME280;21411;50.024;19.220;2023-02-20T11:17:48;98960.40;;;8.12;100.00
35291;BME280;21411;50.024;19.220;2023-02-20T11:22:59;98970.39;;;8.26;100.00
35291;BME280;21411;50.024;19.220;2023-02-20T11:25:33;98958.02;;;8.25;100.00
35291;BME280;21411;50.024;19.220;2023-02-20T11:28:20;98954.58;;;8.24;100.00
35291;BME280;21411;50.024;19.220;2023-02-20T11:30:56;98956.41;;;8.23;100.00
35291;BME280;21411;50.024;19.220;2023-02-20T11:33:25;98947.12;;;8.21;100.00
35291;BME280;21411;50.024;19.220;2023-02-20T11:35:57;98940.94;;;8.21;100.00
35291;BME280;21411;50.024;19.220;2023-02-20T11:38:31;98941.83;;;8.27;100.00
35291;BME280;21411;50.024;19.220;2023-02-20T11:41:04;98937.48;;;8.34;100.00
35291;BME280;21411;50.024;19.220;2023-02-20T11:43:40;98933.91;;;8.42;100.00
35291;BME280;21411;50.024;19.220;2023-02-20T11:46:08;98930.45;;;8.49;100.00
35291;BME280;21411;50.024;19.220;2023-02-20T11:48:35;98918.34;;;8.60;100.00
35291;BME280;21411;50.024;19.220;2023-02-20T11:51:02;98906.91;;;8.58;100.00
35291;BME280;21411;50.024;19.220;2023-02-20T11:53:30;98903.71;;;8.46;100.00
35291;BME280;21411;50.024;19.220;2023-02-20T11:56:10;98894.42;;;8.39;100.00
35291;BME280;21411;50.024;19.220;2023-02-20T11:58:38;98889.85;;;8.32;100.00
35291;BME280;21411;50.024;19.220;2023-02-20T12:01:06;98881.84;;;8.27;100.00
35291;BME280;21411;50.024;19.220;2023-02-20T12:03:35;98864.90;;;8.26;100.00
35291;BME280;21411;50.024;19.220;2023-02-20T12:08:57;98850.89;;;8.26;100.00
35291;BME280;21411;50.024;19.220;2023-02-20T12:11:26;98858.65;;;8.24;100.00
35291;BME280;21411;50.024;19.220;2023-02-20T12:13:55;98862.76;;;8.17;100.00
35291;BME280;21411;50.024;19.220;2023-02-20T12:19:22;98839.32;;;8.04;100.00
35291;BME280;21411;50.024;19.220;2023-02-20T12:28:04;98809.13;;;8.17;100.00
35291;BME280;21411;50.024;19.220;2023-02-20T12:36:32;98790.54;;;8.32;100.00
35291;BME280;21411;50.024;19.220;2023-02-20T12:47:37;98776.81;;;8.74;100.00
35291;BME280;21411;50.024;19.220;2023-02-20T12:50:32;98770.96;;;8.80;100.00
35291;BME280;21411;50.024;19.220;2023-02-20T13:01:22;98759.35;;;8.78;100.00
35291;BME280;21411;50.024;19.220;2023-02-20T13:06:43;98742.13;;;8.85;100.00
35291;BME280;21411;50.024;19.220;2023-02-20T13:09:37;98737.35;;;8.90;100.00
35291;BME280;21411;50.024;19.220;2023-02-20T13:12:13;98742.46;;;8.99;100.00
35291;BME280;21411;50.024;19.220;2023-02-20T13:14:54;98735.48;;;9.08;100.00
35291;BME280;21411;50.024;19.220;2023-02-20T13:17:39;98746.66;;;9.16;100.00
35291;BME280;21411;50.024;19.220;2023-02-20T13:20:21;98739.86;;;9.26;100.00
35291;BME280;21411;50.024;19.220;2023-02-20T13:23:05;98735.38;;;9.32;100.00
35291;BME280;21411;50.024;19.220;2023-02-20T13:25:52;98730.93;;;9.37;100.00
35291;BME280;21411;50.024;19.220;2023-02-20T13:31:16;98718.17;;;9.61;100.00
35291;BME280;21411;50.024;19.220;2023-02-20T13:33:48;98705.18;;;9.72;100.00
35291;BME280;21411;50.024;19.220;2023-02-20T13:36:36;98691.62;;;9.76;100.00
35291;BME280;21411;50.024;19.220;2023-02-20T13:54:56;98639.68;;;9.23;100.00
35291;BME280;21411;50.024;19.220;2023-02-20T13:57:23;98634.87;;;9.16;100.00
35291;BME280;21411;50.024;19.220;2023-02-20T13:59:51;98632.40;;;9.10;100.00
35291;BME280;21411;50.024;19.220;2023-02-20T14:02:22;98622.36;;;9.07;100.00
35291;BME280;21411;50.024;19.220;2023-02-20T14:05:01;98617.34;;;9.02;100.00
35291;BME280;21411;50.024;19.220;2023-02-20T14:10:35;98598.80;;;8.93;100.00
35291;BME280;21411;50.024;19.220;2023-02-20T14:13:01;98594.77;;;8.90;100.00
35291;BME280;21411;50.024;19.220;2023-02-20T14:15:32;98587.11;;;8.87;100.00
35291;BME280;21411;50.024;19.220;2023-02-20T14:18:00;98583.73;;;8.85;100.00
35291;BME280;21411;50.024;19.220;2023-02-20T14:20:35;98576.23;;;8.84;100.00
35291;BME280;21411;50.024;19.220;2023-02-20T14:23:09;98574.09;;;8.84;100.00
35291;BME280;21411;50.024;19.220;2023-02-20T14:25:36;98554.92;;;8.84;100.00
35291;BME280;21411;50.024;19.220;2023-02-20T14:28:14;98552.04;;;8.85;100.00
35291;BME280;21411;50.024;19.220;2023-02-20T14:30:41;98544.74;;;8.86;100.00
35291;BME280;21411;50.024;19.220;2023-02-20T14:33:20;98523.23;;;8.87;100.00
35291;BME280;21411;50.024;19.220;2023-02-20T14:39:02;98512.27;;;8.92;100.00
35291;BME280;21411;50.024;19.220;2023-02-20T14:41:35;98496.34;;;8.94;100.00
35291;BME280;21411;50.024;19.220;2023-02-20T14:44:05;98492.01;;;8.95;100.00
35291;BME280;21411;50.024;19.220;2023-02-20T14:46:39;98486.39;;;8.97;100.00
35291;BME280;21411;50.024;19.220;2023-02-20T14:49:15;98472.10;;;8.99;100.00
35291;BME280;21411;50.024;19.220;2023-02-20T14:51:42;98471.67;;;8.99;100.00